sensor_id;sensor_type;location;lat;lon;timestamp;P1;durP1;ratioP1;P2;durP2;ratioP2
30370;SDS011;17164;48.590;11.410;2022-09-09T00:09:39;3.33;;;1.10;;
30370;SDS011;17164;48.590;11.410;2022-09-09T00:17:38;3.60;;;0.90;;
30370;SDS011;17164;48.590;11.410;2022-09-09T00:20:43;9.17;;;1.90;;
30370;SDS011;17164;48.590;11.410;2022-09-09T00:23:32;2.63;;;0.80;;
30370;SDS011;17164;48.590;11.410;2022-09-09T00:32:05;3.67;;;1.10;;
30370;SDS011;17164;48.590;11.410;2022-09-09T00:34:49;1.50;;;0.97;;
30370;SDS011;17164;48.590;11.410;2022-09-09T00:37:19;1.10;;;0.80;;
30370;SDS011;17164;48.590;11.410;2022-09-09T00:39:47;3.87;;;0.93;;
30370;SDS011;17164;48.590;11.410;2022-09-09T00:42:24;3.10;;;0.87;;
30370;SDS011;17164;48.590;11.410;2022-09-09T00:47:52;2.03;;;1.03;;
30370;SDS011;17164;48.590;11.410;2022-09-09T00:50:40;1.07;;;0.70;;
30370;SDS011;17164;48.590;11.410;2022-09-09T00:56:12;2.87;;;1.10;;
30370;SDS011;17164;48.590;11.410;2022-09-09T00:58:49;5.77;;;1.27;;
30370;SDS011;17164;48.590;11.410;2022-09-09T01:01:21;4.00;;;1.00;;
30370;SDS011;17164;48.590;11.410;2022-09-09T01:03:53;3.60;;;1.20;;
30370;SDS011;17164;48.590;11.410;2022-09-09T01:06:33;3.53;;;1.10;;
30370;SDS011;17164;48.590;11.410;2022-09-09T01:09:16;1.00;;;0.87;;
30370;SDS011;17164;48.590;11.410;2022-09-09T01:15:10;2.20;;;0.90;;
30370;SDS011;17164;48.590;11.410;2022-09-09T01:20:19;2.60;;;1.13;;
30370;SDS011;17164;48.590;11.410;2022-09-09T01:28:41;2.83;;;1.10;;
30370;SDS011;17164;48.590;11.410;2022-09-09T01:31:09;3.07;;;1.20;;
30370;SDS011;17164;48.590;11.410;2022-09-09T01:33:40;4.40;;;1.17;;
30370;SDS011;17164;48.590;11.410;2022-09-09T01:38:53;3.37;;;1.10;;
30370;SDS011;17164;48.590;11.410;2022-09-09T01:41:18;3.67;;;1.40;;
30370;SDS011;17164;48.590;11.410;2022-09-09T01:43:44;4.77;;;1.70;;
30370;SDS011;17164;48.590;11.410;2022-09-09T01:46:10;4.23;;;1.70;;
30370;SDS011;17164;48.590;11.410;2022-09-09T01:48:37;2.90;;;1.20;;
30370;SDS011;17164;48.590;11.410;2022-09-09T01:51:04;6.00;;;1.43;;
30370;SDS011;17164;48.590;11.410;2022-09-09T01:53:29;5.17;;;1.50;;
30370;SDS011;17164;48.590;11.410;2022-09-09T01:56:07;2.97;;;1.17;;
30370;SDS011;17164;48.590;11.410;2022-09-09T02:07:15;7.90;;;1.30;;
30370;SDS011;17164;48.590;11.410;2022-09-09T02:10:09;4.30;;;1.00;;
30370;SDS011;17164;48.590;11.410;2022-09-09T02:12:53;3.13;;;1.57;;
30370;SDS011;17164;48.590;11.410;2022-09-09T02:15:32;3.73;;;1.53;;
30370;SDS011;17164;48.590;11.410;2022-09-09T02:18:04;5.67;;;1.23;;
30370;SDS011;17164;48.590;11.410;2022-09-09T02:20:33;3.57;;;1.13;;
30370;SDS011;17164;48.590;11.410;2022-09-09T02:23:02;2.80;;;0.90;;
30370;SDS011;17164;48.590;11.410;2022-09-09T02:25:29;1.37;;;1.07;;
30370;SDS011;17164;48.590;11.410;2022-09-09T02:27:55;4.33;;;0.80;;
30370;SDS011;17164;48.590;11.410;2022-09-09T02:30:25;2.37;;;0.90;;
30370;SDS011;17164;48.590;11.410;2022-09-09T02:32:54;2.73;;;1.20;;
30370;SDS011;17164;48.590;11.410;2022-09-09T02:35:23;5.00;;;1.00;;
30370;SDS011;17164;48.590;11.410;2022-09-09T02:37:51;4.23;;;1.00;;
30370;SDS011;17164;48.590;11.410;2022-09-09T02:40:20;6.93;;;1.07;;
30370;SDS011;17164;48.590;11.410;2022-09-09T02:42:47;2.10;;;0.90;;
30370;SDS011;17164;48.590;11.410;2022-09-09T02:45:15;5.87;;;1.03;;
30370;SDS011;17164;48.590;11.410;2022-09-09T02:47:56;3.50;;;1.00;;
30370;SDS011;17164;48.590;11.410;2022-09-09T02:50:57;5.70;;;0.97;;
30370;SDS011;17164;48.590;11.410;2022-09-09T02:54:09;3.60;;;1.00;;
30370;SDS011;17164;48.590;11.410;2022-09-09T02:56:55;2.73;;;1.00;;
30370;SDS011;17164;48.590;11.410;2022-09-09T02:59:45;2.73;;;1.27;;
30370;SDS011;17164;48.590;11.410;2022-09-09T03:02:12;5.07;;;1.07;;
30370;SDS011;17164;48.590;11.410;2022-09-09T03:04:38;2.67;;;0.97;;
30370;SDS011;17164;48.590;11.410;2022-09-09T03:07:04;2.97;;;1.30;;
30370;SDS011;17164;48.590;11.410;2022-09-09T03:09:30;5.53;;;1.23;;
30370;SDS011;17164;48.590;11.410;2022-09-09T03:11:57;2.43;;;1.00;;
30370;SDS011;17164;48.590;11.410;2022-09-09T03:14:23;4.07;;;1.10;;
30370;SDS011;17164;48.590;11.410;2022-09-09T03:16:53;5.20;;;0.97;;
30370;SDS011;17164;48.590;11.410;2022-09-09T03:19:19;1.37;;;0.90;;
30370;SDS011;17164;48.590;11.410;2022-09-09T03:21:46;1.57;;;0.93;;
30370;SDS011;17164;48.590;11.410;2022-09-09T03:24:12;3.17;;;0.90;;
30370;SDS011;17164;48.590;11.410;2022-09-09T03:26:39;3.67;;;0.80;;
30370;SDS011;17164;48.590;11.410;2022-09-09T03:29:06;3.80;;;1.27;;
30370;SDS011;17164;48.590;11.410;2022-09-09T03:31:32;4.50;;;1.00;;
30370;SDS011;17164;48.590;11.410;2022-09-09T03:33:59;5.40;;;1.00;;
30370;SDS011;17164;48.590;11.410;2022-09-09T03:36:25;3.40;;;1.20;;
30370;SDS011;17164;48.590;11.410;2022-09-09T03:38:51;4.43;;;1.20;;
30370;SDS011;17164;48.590;11.410;2022-09-09T03:41:19;4.23;;;1.00;;
30370;SDS011;17164;48.590;11.410;2022-09-09T03:43:44;1.23;;;0.73;;
30370;SDS011;17164;48.590;11.410;2022-09-09T03:46:10;6.83;;;1.20;;
30370;SDS011;17164;48.590;11.410;2022-09-09T03:48:36;5.57;;;1.20;;
30370;SDS011;17164;48.590;11.410;2022-09-09T03:51:01;2.40;;;0.87;;
30370;SDS011;17164;48.590;11.410;2022-09-09T03:53:28;3.27;;;0.80;;
30370;SDS011;17164;48.590;11.410;2022-09-09T03:55:54;7.23;;;1.27;;
30370;SDS011;17164;48.590;11.410;2022-09-09T03:58:23;3.60;;;1.13;;
30370;SDS011;17164;48.590;11.410;2022-09-09T04:00:56;1.50;;;1.00;;
30370;SDS011;17164;48.590;11.410;2022-09-09T04:03:24;3.90;;;0.97;;
30370;SDS011;17164;48.590;11.410;2022-09-09T04:05:53;5.00;;;1.30;;
30370;SDS011;17164;48.590;11.410;2022-09-09T04:08:20;7.27;;;1.47;;
30370;SDS011;17164;48.590;11.410;2022-09-09T04:10:50;4.70;;;1.87;;
30370;SDS011;17164;48.590;11.410;2022-09-09T04:13:16;3.47;;;1.87;;
30370;SDS011;17164;48.590;11.410;2022-09-09T04:15:43;6.27;;;1.70;;
30370;SDS011;17164;48.590;11.410;2022-09-09T04:18:15;6.43;;;1.73;;
30370;SDS011;17164;48.590;11.410;2022-09-09T04:20:40;4.57;;;2.00;;
30370;SDS011;17164;48.590;11.410;2022-09-09T04:23:08;6.20;;;1.90;;
30370;SDS011;17164;48.590;11.410;2022-09-09T04:25:34;6.30;;;1.70;;
30370;SDS011;17164;48.590;11.410;2022-09-09T04:27:59;5.50;;;1.90;;
30370;SDS011;17164;48.590;11.410;2022-09-09T04:30:25;3.67;;;1.50;;
30370;SDS011;17164;48.590;11.410;2022-09-09T04:32:52;4.33;;;1.50;;
30370;SDS011;17164;48.590;11.410;2022-09-09T04:35:18;6.93;;;2.17;;
30370;SDS011;17164;48.590;11.410;2022-09-09T04:37:45;5.63;;;1.57;;
30370;SDS011;17164;48.590;11.410;2022-09-09T04:40:11;11.67;;;2.10;;
30370;SDS011;17164;48.590;11.410;2022-09-09T04:42:37;5.77;;;1.83;;
30370;SDS011;17164;48.590;11.410;2022-09-09T04:45:03;7.17;;;2.10;;
30370;SDS011;17164;48.590;11.410;2022-09-09T04:47:30;7.57;;;1.97;;
30370;SDS011;17164;48.590;11.410;2022-09-09T04:49:55;7.23;;;1.60;;
30370;SDS011;17164;48.590;11.410;2022-09-09T04:52:21;7.13;;;1.83;;
30370;SDS011;17164;48.590;11.410;2022-09-09T04:54:47;11.03;;;2.10;;
30370;SDS011;17164;48.590;11.410;2022-09-09T04:57:13;5.50;;;1.80;;
30370;SDS011;17164;48.590;11.410;2022-09-09T04:59:39;7.17;;;1.53;;
30370;SDS011;17164;48.590;11.410;2022-09-09T05:02:04;4.83;;;1.50;;
30370;SDS011;17164;48.590;11.410;2022-09-09T05:04:30;6.07;;;1.50;;
30370;SDS011;17164;48.590;11.410;2022-09-09T05:06:58;3.77;;;1.20;;
30370;SDS011;17164;48.590;11.410;2022-09-09T05:09:23;2.73;;;1.17;;
30370;SDS011;17164;48.590;11.410;2022-09-09T05:11:49;2.00;;;1.20;;
30370;SDS011;17164;48.590;11.410;2022-09-09T05:14:16;1.37;;;0.70;;
30370;SDS011;17164;48.590;11.410;2022-09-09T05:16:42;1.90;;;0.87;;
30370;SDS011;17164;48.590;11.410;2022-09-09T05:19:09;5.67;;;0.90;;
30370;SDS011;17164;48.590;11.410;2022-09-09T05:21:35;4.20;;;1.20;;
30370;SDS011;17164;48.590;11.410;2022-09-09T05:24:01;2.27;;;1.00;;
30370;SDS011;17164;48.590;11.410;2022-09-09T05:26:26;1.17;;;0.83;;
30370;SDS011;17164;48.590;11.410;2022-09-09T05:28:54;3.20;;;1.20;;
30370;SDS011;17164;48.590;11.410;2022-09-09T05:31:20;2.57;;;0.80;;
30370;SDS011;17164;48.590;11.410;2022-09-09T05:33:47;4.25;;;1.10;;
30370;SDS011;17164;48.590;11.410;2022-09-09T05:38:41;7.13;;;1.30;;
30370;SDS011;17164;48.590;11.410;2022-09-09T05:41:08;2.17;;;1.37;;
30370;SDS011;17164;48.590;11.410;2022-09-09T05:43:35;3.03;;;1.33;;
30370;SDS011;17164;48.590;11.410;2022-09-09T05:48:31;5.50;;;1.30;;
30370;SDS011;17164;48.590;11.410;2022-09-09T05:50:58;5.10;;;1.40;;
30370;SDS011;17164;48.590;11.410;2022-09-09T05:53:24;3.87;;;1.07;;
30370;SDS011;17164;48.590;11.410;2022-09-09T05:55:58;3.70;;;1.00;;
30370;SDS011;17164;48.590;11.410;2022-09-09T05:58:29;4.37;;;1.30;;
30370;SDS011;17164;48.590;11.410;2022-09-09T06:01:05;1.70;;;1.20;;
30370;SDS011;17164;48.590;11.410;2022-09-09T06:03:34;3.13;;;1.20;;
30370;SDS011;17164;48.590;11.410;2022-09-09T06:06:02;3.73;;;1.27;;
30370;SDS011;17164;48.590;11.410;2022-09-09T06:08:30;3.70;;;1.60;;
30370;SDS011;17164;48.590;11.410;2022-09-09T06:11:03;2.60;;;1.50;;
30370;SDS011;17164;48.590;11.410;2022-09-09T06:13:30;2.70;;;1.23;;
30370;SDS011;17164;48.590;11.410;2022-09-09T06:15:56;2.50;;;1.40;;
30370;SDS011;17164;48.590;11.410;2022-09-09T06:18:23;3.87;;;1.60;;
30370;SDS011;17164;48.590;11.410;2022-09-09T06:20:59;3.73;;;1.50;;
30370;SDS011;17164;48.590;11.410;2022-09-09T06:23:27;4.27;;;1.33;;
30370;SDS011;17164;48.590;11.410;2022-09-09T06:26:06;11.33;;;1.57;;
30370;SDS011;17164;48.590;11.410;2022-09-09T06:28:34;7.47;;;1.63;;
30370;SDS011;17164;48.590;11.410;2022-09-09T06:31:01;7.13;;;1.43;;
30370;SDS011;17164;48.590;11.410;2022-09-09T06:33:32;1.93;;;1.20;;
30370;SDS011;17164;48.590;11.410;2022-09-09T06:36:00;1.93;;;1.13;;
30370;SDS011;17164;48.590;11.410;2022-09-09T06:38:26;5.87;;;1.90;;
30370;SDS011;17164;48.590;11.410;2022-09-09T06:40:56;3.90;;;1.20;;
30370;SDS011;17164;48.590;11.410;2022-09-09T06:43:23;5.53;;;1.67;;
30370;SDS011;17164;48.590;11.410;2022-09-09T06:46:32;5.10;;;1.73;;
30370;SDS011;17164;48.590;11.410;2022-09-09T06:48:46;5.10;;;1.60;;
30370;SDS011;17164;48.590;11.410;2022-09-09T06:51:19;2.90;;;1.90;;
30370;SDS011;17164;48.590;11.410;2022-09-09T06:53:47;7.27;;;1.70;;
30370;SDS011;17164;48.590;11.410;2022-09-09T06:56:23;4.60;;;2.07;;
30370;SDS011;17164;48.590;11.410;2022-09-09T06:58:49;7.33;;;2.07;;
30370;SDS011;17164;48.590;11.410;2022-09-09T07:01:17;5.30;;;2.00;;
30370;SDS011;17164;48.590;11.410;2022-09-09T07:03:46;4.27;;;1.73;;
30370;SDS011;17164;48.590;11.410;2022-09-09T07:06:18;10.80;;;3.73;;
30370;SDS011;17164;48.590;11.410;2022-09-09T07:08:52;9.57;;;3.40;;
30370;SDS011;17164;48.590;11.410;2022-09-09T07:11:23;4.60;;;1.87;;
30370;SDS011;17164;48.590;11.410;2022-09-09T07:13:54;4.03;;;1.90;;
30370;SDS011;17164;48.590;11.410;2022-09-09T07:16:20;3.63;;;1.80;;
30370;SDS011;17164;48.590;11.410;2022-09-09T07:18:50;2.40;;;1.57;;
30370;SDS011;17164;48.590;11.410;2022-09-09T07:21:17;3.23;;;1.83;;
30370;SDS011;17164;48.590;11.410;2022-09-09T07:23:44;3.30;;;1.90;;
30370;SDS011;17164;48.590;11.410;2022-09-09T07:26:20;3.87;;;1.50;;
30370;SDS011;17164;48.590;11.410;2022-09-09T07:28:47;7.77;;;1.90;;
30370;SDS011;17164;48.590;11.410;2022-09-09T07:31:14;4.37;;;1.87;;
30370;SDS011;17164;48.590;11.410;2022-09-09T07:33:41;3.47;;;1.80;;
30370;SDS011;17164;48.590;11.410;2022-09-09T07:36:08;3.90;;;1.90;;
30370;SDS011;17164;48.590;11.410;2022-09-09T07:38:46;5.07;;;2.10;;
30370;SDS011;17164;48.590;11.410;2022-09-09T07:41:15;6.87;;;2.30;;
30370;SDS011;17164;48.590;11.410;2022-09-09T07:43:42;7.70;;;2.00;;
30370;SDS011;17164;48.590;11.410;2022-09-09T07:46:10;5.47;;;1.97;;
30370;SDS011;17164;48.590;11.410;2022-09-09T07:48:37;4.57;;;1.70;;
30370;SDS011;17164;48.590;11.410;2022-09-09T07:51:04;4.00;;;1.60;;
30370;SDS011;17164;48.590;11.410;2022-09-09T07:53:32;4.13;;;1.73;;
30370;SDS011;17164;48.590;11.410;2022-09-09T07:56:04;3.63;;;1.60;;
30370;SDS011;17164;48.590;11.410;2022-09-09T07:58:31;4.53;;;1.70;;
30370;SDS011;17164;48.590;11.410;2022-09-09T08:00:57;3.70;;;1.53;;
30370;SDS011;17164;48.590;11.410;2022-09-09T08:03:23;2.87;;;1.73;;
30370;SDS011;17164;48.590;11.410;2022-09-09T08:05:48;4.00;;;1.83;;
30370;SDS011;17164;48.590;11.410;2022-09-09T08:08:14;4.23;;;1.80;;
30370;SDS011;17164;48.590;11.410;2022-09-09T08:10:41;6.97;;;1.93;;
30370;SDS011;17164;48.590;11.410;2022-09-09T08:13:08;4.07;;;1.70;;
30370;SDS011;17164;48.590;11.410;2022-09-09T08:15:33;3.83;;;2.13;;
30370;SDS011;17164;48.590;11.410;2022-09-09T08:17:59;3.97;;;1.40;;
30370;SDS011;17164;48.590;11.410;2022-09-09T08:20:25;2.63;;;1.23;;
30370;SDS011;17164;48.590;11.410;2022-09-09T08:22:50;3.07;;;1.10;;
30370;SDS011;17164;48.590;11.410;2022-09-09T08:25:16;1.93;;;1.10;;
30370;SDS011;17164;48.590;11.410;2022-09-09T08:27:41;2.90;;;1.53;;
30370;SDS011;17164;48.590;11.410;2022-09-09T08:30:07;2.97;;;1.33;;
30370;SDS011;17164;48.590;11.410;2022-09-09T08:32:34;6.78;;;1.52;;
30370;SDS011;17164;48.590;11.410;2022-09-09T08:35:00;3.53;;;1.20;;
30370;SDS011;17164;48.590;11.410;2022-09-09T08:37:25;5.63;;;1.40;;
30370;SDS011;17164;48.590;11.410;2022-09-09T08:39:51;3.90;;;1.53;;
30370;SDS011;17164;48.590;11.410;2022-09-09T08:52:55;2.93;;;1.20;;
30370;SDS011;17164;48.590;11.410;2022-09-09T08:55:48;4.83;;;1.13;;
30370;SDS011;17164;48.590;11.410;2022-09-09T08:58:18;3.10;;;1.13;;
30370;SDS011;17164;48.590;11.410;2022-09-09T09:11:43;2.80;;;0.90;;
30370;SDS011;17164;48.590;11.410;2022-09-09T09:14:17;1.50;;;0.77;;
30370;SDS011;17164;48.590;11.410;2022-09-09T09:16:58;3.77;;;1.00;;
30370;SDS011;17164;48.590;11.410;2022-09-09T09:19:28;2.47;;;0.70;;
30370;SDS011;17164;48.590;11.410;2022-09-09T09:22:39;1.93;;;0.60;;
30370;SDS011;17164;48.590;11.410;2022-09-09T09:30:38;3.80;;;0.90;;
30370;SDS011;17164;48.590;11.410;2022-09-09T09:33:14;1.20;;;0.60;;
30370;SDS011;17164;48.590;11.410;2022-09-09T09:35:58;3.77;;;0.90;;
30370;SDS011;17164;48.590;11.410;2022-09-09T09:38:25;2.87;;;1.23;;
30370;SDS011;17164;48.590;11.410;2022-09-09T09:40:55;2.83;;;0.77;;
30370;SDS011;17164;48.590;11.410;2022-09-09T09:43:30;2.80;;;0.80;;
30370;SDS011;17164;48.590;11.410;2022-09-09T09:46:00;2.43;;;0.70;;
30370;SDS011;17164;48.590;11.410;2022-09-09T09:48:29;3.53;;;0.70;;
30370;SDS011;17164;48.590;11.410;2022-09-09T09:50:59;4.47;;;0.97;;
30370;SDS011;17164;48.590;11.410;2022-09-09T09:53:38;1.60;;;0.70;;
30370;SDS011;17164;48.590;11.410;2022-09-09T09:58:32;3.00;;;0.80;;
30370;SDS011;17164;48.590;11.410;2022-09-09T10:03:58;4.07;;;1.00;;
30370;SDS011;17164;48.590;11.410;2022-09-09T10:06:45;2.80;;;0.87;;
30370;SDS011;17164;48.590;11.410;2022-09-09T10:09:44;1.93;;;0.70;;
30370;SDS011;17164;48.590;11.410;2022-09-09T10:22:52;4.67;;;1.00;;
30370;SDS011;17164;48.590;11.410;2022-09-09T10:31:21;3.30;;;0.97;;
30370;SDS011;17164;48.590;11.410;2022-09-09T10:36:49;1.63;;;0.60;;
30370;SDS011;17164;48.590;11.410;2022-09-09T10:39:31;3.53;;;0.90;;
30370;SDS011;17164;48.590;11.410;2022-09-09T10:55:20;1.97;;;0.70;;
30370;SDS011;17164;48.590;11.410;2022-09-09T10:57:55;1.53;;;0.70;;
30370;SDS011;17164;48.590;11.410;2022-09-09T11:03:01;3.57;;;0.80;;
30370;SDS011;17164;48.590;11.410;2022-09-09T11:05:51;3.63;;;1.00;;
30370;SDS011;17164;48.590;11.410;2022-09-09T11:08:18;2.97;;;0.90;;
30370;SDS011;17164;48.590;11.410;2022-09-09T11:16:30;4.60;;;1.10;;
30370;SDS011;17164;48.590;11.410;2022-09-09T11:22:05;4.53;;;1.30;;
30370;SDS011;17164;48.590;11.410;2022-09-09T11:35:33;3.83;;;1.27;;
30370;SDS011;17164;48.590;11.410;2022-09-09T11:38:19;3.87;;;1.00;;
30370;SDS011;17164;48.590;11.410;2022-09-09T11:43:39;3.83;;;0.90;;
30370;SDS011;17164;48.590;11.410;2022-09-09T11:46:15;1.30;;;0.50;;
30370;SDS011;17164;48.590;11.410;2022-09-09T11:48:44;2.80;;;1.10;;
30370;SDS011;17164;48.590;11.410;2022-09-09T11:51:26;2.77;;;0.83;;
30370;SDS011;17164;48.590;11.410;2022-09-09T11:56:26;3.43;;;0.80;;
30370;SDS011;17164;48.590;11.410;2022-09-09T11:59:00;2.43;;;0.70;;
30370;SDS011;17164;48.590;11.410;2022-09-09T12:01:29;4.17;;;1.10;;
30370;SDS011;17164;48.590;11.410;2022-09-09T12:06:43;4.87;;;1.27;;
30370;SDS011;17164;48.590;11.410;2022-09-09T12:12:07;4.00;;;0.70;;
30370;SDS011;17164;48.590;11.410;2022-09-09T12:15:25;3.33;;;0.80;;
30370;SDS011;17164;48.590;11.410;2022-09-09T12:17:49;2.33;;;0.87;;
30370;SDS011;17164;48.590;11.410;2022-09-09T12:28:09;4.97;;;0.87;;
30370;SDS011;17164;48.590;11.410;2022-09-09T12:33:11;5.80;;;1.57;;
30370;SDS011;17164;48.590;11.410;2022-09-09T12:35:38;2.83;;;0.90;;
30370;SDS011;17164;48.590;11.410;2022-09-09T12:38:05;5.00;;;0.70;;
30370;SDS011;17164;48.590;11.410;2022-09-09T12:40:36;3.40;;;1.03;;
30370;SDS011;17164;48.590;11.410;2022-09-09T12:43:17;1.43;;;0.57;;
30370;SDS011;17164;48.590;11.410;2022-09-09T12:45:44;3.93;;;0.97;;
30370;SDS011;17164;48.590;11.410;2022-09-09T12:48:10;3.23;;;1.13;;
30370;SDS011;17164;48.590;11.410;2022-09-09T12:50:44;6.60;;;0.90;;
30370;SDS011;17164;48.590;11.410;2022-09-09T12:53:12;4.83;;;1.10;;
30370;SDS011;17164;48.590;11.410;2022-09-09T12:55:56;2.10;;;0.90;;
30370;SDS011;17164;48.590;11.410;2022-09-09T12:58:24;3.37;;;1.00;;
30370;SDS011;17164;48.590;11.410;2022-09-09T13:00:53;2.13;;;0.80;;
30370;SDS011;17164;48.590;11.410;2022-09-09T13:03:21;3.73;;;0.90;;
30370;SDS011;17164;48.590;11.410;2022-09-09T13:05:48;4.43;;;1.20;;
30370;SDS011;17164;48.590;11.410;2022-09-09T13:08:15;3.77;;;0.93;;
30370;SDS011;17164;48.590;11.410;2022-09-09T13:10:54;3.07;;;1.13;;
30370;SDS011;17164;48.590;11.410;2022-09-09T13:13:33;2.50;;;0.80;;
30370;SDS011;17164;48.590;11.410;2022-09-09T13:16:05;3.10;;;0.80;;
30370;SDS011;17164;48.590;11.410;2022-09-09T13:18:42;3.43;;;0.80;;
30370;SDS011;17164;48.590;11.410;2022-09-09T13:21:08;4.70;;;0.83;;
30370;SDS011;17164;48.590;11.410;2022-09-09T13:23:35;5.73;;;0.90;;
30370;SDS011;17164;48.590;11.410;2022-09-09T13:28:29;2.57;;;1.00;;
30370;SDS011;17164;48.590;11.410;2022-09-09T13:30:56;5.80;;;0.90;;
30370;SDS011;17164;48.590;11.410;2022-09-09T13:33:31;8.33;;;0.77;;
30370;SDS011;17164;48.590;11.410;2022-09-09T13:38:32;2.67;;;0.80;;
30370;SDS011;17164;48.590;11.410;2022-09-09T13:41:05;5.20;;;0.73;;
30370;SDS011;17164;48.590;11.410;2022-09-09T13:43:43;6.30;;;0.83;;
30370;SDS011;17164;48.590;11.410;2022-09-09T13:46:43;3.60;;;1.20;;
30370;SDS011;17164;48.590;11.410;2022-09-09T13:54:04;4.83;;;1.10;;
30370;SDS011;17164;48.590;11.410;2022-09-09T13:56:31;4.03;;;1.00;;
30370;SDS011;17164;48.590;11.410;2022-09-09T13:58:58;2.87;;;0.60;;
30370;SDS011;17164;48.590;11.410;2022-09-09T14:01:24;4.57;;;0.70;;
30370;SDS011;17164;48.590;11.410;2022-09-09T14:03:49;5.87;;;0.90;;
30370;SDS011;17164;48.590;11.410;2022-09-09T14:06:16;3.60;;;0.90;;
30370;SDS011;17164;48.590;11.410;2022-09-09T14:08:43;1.80;;;0.60;;
30370;SDS011;17164;48.590;11.410;2022-09-09T14:11:11;4.63;;;0.93;;
30370;SDS011;17164;48.590;11.410;2022-09-09T14:13:38;4.40;;;0.80;;
30370;SDS011;17164;48.590;11.410;2022-09-09T14:16:04;3.20;;;0.83;;
30370;SDS011;17164;48.590;11.410;2022-09-09T14:18:30;3.23;;;0.70;;
30370;SDS011;17164;48.590;11.410;2022-09-09T14:20:55;3.97;;;0.73;;
30370;SDS011;17164;48.590;11.410;2022-09-09T14:23:23;2.90;;;0.83;;
30370;SDS011;17164;48.590;11.410;2022-09-09T14:25:49;5.43;;;0.90;;
30370;SDS011;17164;48.590;11.410;2022-09-09T14:28:16;2.63;;;0.60;;
30370;SDS011;17164;48.590;11.410;2022-09-09T14:30:42;3.77;;;0.70;;
30370;SDS011;17164;48.590;11.410;2022-09-09T14:33:10;5.30;;;1.20;;
30370;SDS011;17164;48.590;11.410;2022-09-09T14:35:37;4.67;;;0.90;;
30370;SDS011;17164;48.590;11.410;2022-09-09T14:38:04;4.03;;;0.63;;
30370;SDS011;17164;48.590;11.410;2022-09-09T14:40:29;7.33;;;1.30;;
30370;SDS011;17164;48.590;11.410;2022-09-09T14:42:55;2.37;;;0.50;;
30370;SDS011;17164;48.590;11.410;2022-09-09T14:45:22;3.80;;;0.80;;
30370;SDS011;17164;48.590;11.410;2022-09-09T14:47:49;2.47;;;0.60;;
30370;SDS011;17164;48.590;11.410;2022-09-09T14:50:16;4.33;;;0.73;;
30370;SDS011;17164;48.590;11.410;2022-09-09T14:52:42;2.50;;;0.47;;
30370;SDS011;17164;48.590;11.410;2022-09-09T14:55:08;3.20;;;0.70;;
30370;SDS011;17164;48.590;11.410;2022-09-09T14:57:34;2.60;;;0.60;;
30370;SDS011;17164;48.590;11.410;2022-09-09T15:00:00;6.97;;;0.60;;
30370;SDS011;17164;48.590;11.410;2022-09-09T15:02:28;3.43;;;0.80;;
30370;SDS011;17164;48.590;11.410;2022-09-09T15:04:54;3.60;;;0.80;;
30370;SDS011;17164;48.590;11.410;2022-09-09T15:07:23;5.77;;;0.60;;
30370;SDS011;17164;48.590;11.410;2022-09-09T15:09:48;7.40;;;0.80;;
30370;SDS011;17164;48.590;11.410;2022-09-09T15:12:14;4.63;;;0.70;;
30370;SDS011;17164;48.590;11.410;2022-09-09T15:14:40;4.13;;;0.87;;
30370;SDS011;17164;48.590;11.410;2022-09-09T15:17:06;1.70;;;0.63;;
30370;SDS011;17164;48.590;11.410;2022-09-09T15:19:31;5.17;;;1.30;;
30370;SDS011;17164;48.590;11.410;2022-09-09T15:21:57;1.87;;;0.63;;
30370;SDS011;17164;48.590;11.410;2022-09-09T15:24:24;3.73;;;0.80;;
30370;SDS011;17164;48.590;11.410;2022-09-09T15:26:51;4.33;;;0.90;;
30370;SDS011;17164;48.590;11.410;2022-09-09T15:29:17;4.03;;;0.87;;
30370;SDS011;17164;48.590;11.410;2022-09-09T15:31:43;1.07;;;0.40;;
30370;SDS011;17164;48.590;11.410;2022-09-09T15:34:09;2.77;;;0.60;;
30370;SDS011;17164;48.590;11.410;2022-09-09T15:39:03;1.63;;;0.38;;
30370;SDS011;17164;48.590;11.410;2022-09-09T15:41:31;1.17;;;0.40;;
30370;SDS011;17164;48.590;11.410;2022-09-09T15:43:57;1.13;;;0.33;;
30370;SDS011;17164;48.590;11.410;2022-09-09T15:46:31;4.43;;;0.60;;
30370;SDS011;17164;48.590;11.410;2022-09-09T15:49:06;2.07;;;0.40;;
30370;SDS011;17164;48.590;11.410;2022-09-09T15:51:36;1.17;;;0.37;;
30370;SDS011;17164;48.590;11.410;2022-09-09T15:54:03;0.60;;;0.30;;
30370;SDS011;17164;48.590;11.410;2022-09-09T15:56:30;0.90;;;0.30;;
30370;SDS011;17164;48.590;11.410;2022-09-09T15:58:56;1.30;;;0.40;;
30370;SDS011;17164;48.590;11.410;2022-09-09T16:01:23;2.97;;;0.60;;
30370;SDS011;17164;48.590;11.410;2022-09-09T16:03:49;1.10;;;0.50;;
30370;SDS011;17164;48.590;11.410;2022-09-09T16:06:20;1.30;;;0.47;;
30370;SDS011;17164;48.590;11.410;2022-09-09T16:08:48;1.10;;;0.50;;
30370;SDS011;17164;48.590;11.410;2022-09-09T16:11:27;0.97;;;0.40;;
30370;SDS011;17164;48.590;11.410;2022-09-09T16:13:56;1.60;;;0.47;;
30370;SDS011;17164;48.590;11.410;2022-09-09T16:16:23;2.40;;;0.50;;
30370;SDS011;17164;48.590;11.410;2022-09-09T16:18:54;2.03;;;0.53;;
30370;SDS011;17164;48.590;11.410;2022-09-09T16:21:23;6.43;;;0.60;;
30370;SDS011;17164;48.590;11.410;2022-09-09T16:23:56;3.43;;;0.50;;
30370;SDS011;17164;48.590;11.410;2022-09-09T16:26:29;2.50;;;0.70;;
30370;SDS011;17164;48.590;11.410;2022-09-09T16:28:56;1.43;;;0.60;;
30370;SDS011;17164;48.590;11.410;2022-09-09T16:31:23;5.07;;;0.70;;
30370;SDS011;17164;48.590;11.410;2022-09-09T16:33:51;6.03;;;0.70;;
30370;SDS011;17164;48.590;11.410;2022-09-09T16:36:18;1.20;;;0.40;;
30370;SDS011;17164;48.590;11.410;2022-09-09T16:38:55;2.00;;;0.50;;
30370;SDS011;17164;48.590;11.410;2022-09-09T16:41:23;0.43;;;0.30;;
30370;SDS011;17164;48.590;11.410;2022-09-09T16:43:53;1.20;;;0.40;;
30370;SDS011;17164;48.590;11.410;2022-09-09T16:46:27;2.47;;;0.60;;
30370;SDS011;17164;48.590;11.410;2022-09-09T16:48:55;2.57;;;0.60;;
30370;SDS011;17164;48.590;11.410;2022-09-09T16:51:26;1.60;;;0.63;;
30370;SDS011;17164;48.590;11.410;2022-09-09T16:53:54;2.50;;;0.53;;
30370;SDS011;17164;48.590;11.410;2022-09-09T16:56:21;4.67;;;0.87;;
30370;SDS011;17164;48.590;11.410;2022-09-09T16:58:52;1.23;;;0.60;;
30370;SDS011;17164;48.590;11.410;2022-09-09T17:01:20;2.93;;;0.60;;
30370;SDS011;17164;48.590;11.410;2022-09-09T17:03:46;5.33;;;0.70;;
30370;SDS011;17164;48.590;11.410;2022-09-09T17:06:13;2.60;;;0.82;;
30370;SDS011;17164;48.590;11.410;2022-09-09T17:08:40;1.80;;;0.67;;
30370;SDS011;17164;48.590;11.410;2022-09-09T17:11:16;4.70;;;0.67;;
30370;SDS011;17164;48.590;11.410;2022-09-09T17:13:43;2.93;;;1.23;;
30370;SDS011;17164;48.590;11.410;2022-09-09T17:16:10;1.77;;;0.80;;
30370;SDS011;17164;48.590;11.410;2022-09-09T17:18:37;2.73;;;1.00;;
30370;SDS011;17164;48.590;11.410;2022-09-09T17:21:04;2.27;;;0.63;;
30370;SDS011;17164;48.590;11.410;2022-09-09T17:23:31;2.33;;;0.70;;
30370;SDS011;17164;48.590;11.410;2022-09-09T17:25:58;3.67;;;0.80;;
30370;SDS011;17164;48.590;11.410;2022-09-09T17:28:25;3.07;;;0.70;;
30370;SDS011;17164;48.590;11.410;2022-09-09T17:30:55;5.90;;;0.87;;
30370;SDS011;17164;48.590;11.410;2022-09-09T17:33:27;2.40;;;0.87;;
30370;SDS011;17164;48.590;11.410;2022-09-09T17:35:56;4.23;;;0.80;;
30370;SDS011;17164;48.590;11.410;2022-09-09T17:38:23;2.90;;;0.60;;
30370;SDS011;17164;48.590;11.410;2022-09-09T17:40:50;7.40;;;1.00;;
30370;SDS011;17164;48.590;11.410;2022-09-09T17:43:25;13.50;;;1.40;;
30370;SDS011;17164;48.590;11.410;2022-09-09T17:45:51;9.97;;;2.10;;